Terminal Aerodrome Forecast
Issued by NWS

Home | Current Version | Previous Version | Text Only | Print | Product List | Glossary On
Versions: 1 2 3 4 5 6 7 8 9 10 11 12 13 14 15 16 17 18 19 20 21 22 23 24 25 26 27 28 29 30
537
FTUS45 KABQ 261138
TAFROW
TAF
KROW 261138Z 2612/2712 20006KT P6SM BKN250
      TEMPO 2613/2615 BKN020
     FM261500 15011KT P6SM BKN018
     FM262200 16012G20KT P6SM FEW025 SCT035
     FM270200 17008KT P6SM SCT035 BKN160
     FM270800 17009KT P6SM SCT025 BKN035=

USA.gov is the U.S. government's official web portal to all federal, state and local government web resources and services.